createdAt,value
2022-08-27T00:00:51.415Z,31.88
2022-08-27T00:03:41.776Z,36.97
2022-08-27T00:06:32.168Z,40.88
2022-08-27T00:09:27.069Z,39.13
2022-08-27T00:12:17.956Z,37.47
2022-08-27T00:15:08.764Z,42.67
2022-08-27T00:18:01.067Z,40.60
2022-08-27T00:20:51.262Z,40.55
2022-08-27T00:23:41.555Z,37.30
2022-08-27T00:26:32.396Z,36.22
2022-08-27T00:29:22.726Z,42.97
2022-08-27T00:32:13.057Z,47.40
2022-08-27T00:35:03.720Z,44.42
2022-08-27T00:37:54.262Z,41.10
2022-08-27T00:40:44.881Z,46.08
2022-08-27T00:43:48.861Z,45.53
2022-08-27T00:46:48.135Z,47.40
2022-08-27T00:49:46.807Z,47.38
2022-08-27T00:52:42.369Z,45.08
2022-08-27T00:55:36.570Z,49.97
2022-08-27T01:01:31.733Z,48.47
2022-08-27T01:04:26.122Z,46.00
2022-08-27T01:07:17.201Z,49.85
2022-08-27T01:10:12.556Z,55.70
2022-08-27T01:13:02.870Z,46.03
2022-08-27T01:15:58.738Z,50.63
2022-08-27T01:18:50.026Z,45.15
2022-08-27T01:21:55.512Z,43.53
2022-08-27T01:24:49.142Z,44.22
2022-08-27T01:27:42.948Z,44.97
2022-08-27T01:30:33.354Z,48.53
2022-08-27T01:33:23.713Z,43.13
2022-08-27T01:36:14.167Z,46.40
2022-08-27T01:39:04.642Z,44.88
2022-08-27T01:42:03.955Z,48.65
2022-08-27T01:44:57.493Z,46.65
2022-08-27T01:47:48.355Z,47.33
2022-08-27T01:50:40.930Z,43.40
2022-08-27T01:53:31.151Z,45.55
2022-08-27T01:56:21.503Z,48.63
2022-08-27T01:59:11.891Z,42.88
2022-08-27T02:02:02.919Z,44.65
2022-08-27T02:04:52.912Z,48.55
2022-08-27T02:07:43.001Z,44.58
2022-08-27T02:10:37.011Z,45.03
2022-08-27T02:16:18.257Z,50.90
2022-08-27T02:19:09.789Z,48.38
2022-08-27T02:22:00.526Z,52.22
2022-08-27T02:24:51.143Z,48.58
2022-08-27T02:27:43.060Z,47.92
2022-08-27T02:30:35.101Z,48.00
2022-08-27T02:33:26.148Z,53.53
2022-08-27T02:36:17.888Z,53.03
2022-08-27T02:39:08.557Z,52.90
2022-08-27T02:41:59.000Z,56.67
2022-08-27T02:44:49.484Z,57.83
2022-08-27T02:47:40.486Z,54.38
2022-08-27T02:50:31.217Z,52.95
2022-08-27T02:53:21.825Z,56.17
2022-08-27T02:56:14.126Z,58.10
2022-08-27T02:59:11.602Z,55.92
2022-08-27T03:02:02.055Z,51.88
2022-08-27T03:04:52.585Z,59.70
2022-08-27T03:07:43.430Z,57.33
2022-08-27T03:10:33.789Z,56.53
2022-08-27T03:13:25.843Z,53.85
2022-08-27T03:16:15.614Z,53.65
2022-08-27T03:19:07.130Z,52.38
2022-08-27T03:21:57.145Z,50.80
2022-08-27T03:24:47.483Z,47.63
2022-08-27T03:27:38.269Z,48.90
2022-08-27T03:30:28.732Z,49.88
2022-08-27T03:33:21.105Z,46.92
2022-08-27T03:36:11.720Z,46.30
2022-08-27T03:39:01.965Z,48.75
2022-08-27T03:41:58.406Z,42.83
2022-08-27T03:44:49.392Z,43.03
2022-08-27T03:47:40.211Z,41.90
2022-08-27T03:50:30.366Z,48.10
2022-08-27T03:53:20.876Z,49.60
2022-08-27T03:56:11.335Z,51.55
2022-08-27T03:59:01.573Z,52.20
2022-08-27T04:01:51.663Z,54.58
2022-08-27T04:04:42.022Z,56.00
2022-08-27T04:07:33.183Z,51.25
2022-08-27T04:10:23.488Z,55.45
2022-08-27T04:13:13.883Z,57.95
2022-08-27T04:16:05.433Z,58.05
2022-08-27T04:18:55.893Z,55.03
2022-08-27T04:21:46.149Z,63.03
2022-08-27T04:24:37.601Z,56.65
2022-08-27T04:27:29.084Z,58.17
2022-08-27T04:30:19.484Z,60.30
2022-08-27T04:33:10.885Z,57.22
2022-08-27T04:36:08.352Z,62.20
2022-08-27T04:38:58.656Z,61.83
2022-08-27T04:41:50.960Z,62.38
2022-08-27T04:44:41.182Z,62.65
2022-08-27T04:47:31.282Z,61.78
2022-08-27T04:50:21.577Z,64.88
2022-08-27T04:53:20.178Z,64.18
2022-08-27T04:56:14.577Z,61.38
2022-08-27T04:59:08.063Z,65.32
2022-08-27T05:01:58.723Z,69.03
2022-08-27T05:04:49.055Z,71.30
2022-08-27T05:07:39.417Z,66.80
2022-08-27T05:10:29.621Z,73.03
2022-08-27T05:13:22.564Z,68.57
2022-08-27T05:16:16.664Z,66.63
2022-08-27T05:22:01.321Z,64.00
2022-08-27T05:24:51.346Z,65.28
2022-08-27T05:27:41.525Z,63.05
2022-08-27T05:30:36.896Z,67.10
2022-08-27T05:33:27.180Z,63.03
2022-08-27T05:36:25.544Z,60.30
2022-08-27T05:39:15.772Z,65.45
2022-08-27T05:42:06.290Z,62.58
2022-08-27T05:44:56.536Z,70.50
2022-08-27T05:47:58.224Z,64.03
2022-08-27T05:50:48.753Z,60.67
2022-08-27T05:53:40.120Z,62.90
2022-08-27T05:56:33.895Z,60.95
2022-08-27T05:59:42.999Z,61.00
2022-08-27T06:02:37.211Z,60.13
2022-08-27T06:05:27.590Z,63.72
2022-08-27T06:08:18.564Z,66.95
2022-08-27T06:11:08.635Z,65.25
2022-08-27T06:13:58.877Z,64.28
2022-08-27T06:16:48.866Z,64.72
2022-08-27T06:19:39.318Z,64.88
2022-08-27T06:22:29.803Z,55.60
2022-08-27T06:25:20.113Z,66.78
2022-08-27T06:28:10.464Z,62.85
2022-08-27T06:31:12.618Z,62.28
2022-08-27T06:34:07.467Z,71.75
2022-08-27T06:36:57.900Z,66.93
2022-08-27T06:39:48.493Z,61.28
2022-08-27T06:42:38.663Z,64.85
2022-08-27T06:45:29.914Z,69.22
2022-08-27T06:48:20.449Z,65.43
2022-08-27T06:51:14.218Z,63.00
2022-08-27T06:54:07.983Z,65.80
2022-08-27T06:56:59.812Z,78.43
2022-08-27T06:59:50.669Z,62.95
2022-08-27T07:02:41.911Z,60.80
2022-08-27T07:05:35.197Z,62.47
2022-08-27T07:08:25.358Z,62.58
2022-08-27T07:11:15.802Z,58.45
2022-08-27T07:14:07.398Z,57.60
2022-08-27T07:16:57.287Z,56.85
2022-08-27T07:19:47.758Z,56.63
2022-08-27T07:22:45.756Z,48.20
2022-08-27T07:25:36.115Z,56.10
2022-08-27T07:28:27.165Z,57.75
2022-08-27T07:31:20.457Z,54.15
2022-08-27T07:34:10.977Z,50.90
2022-08-27T07:37:01.252Z,60.15
2022-08-27T07:39:51.583Z,48.63
2022-08-27T07:43:01.665Z,58.00
2022-08-27T07:45:56.107Z,50.13
2022-08-27T07:48:46.152Z,50.95
2022-08-27T07:51:37.769Z,58.80
2022-08-27T07:54:28.325Z,55.72
2022-08-27T07:57:18.546Z,59.92
2022-08-27T08:00:10.885Z,59.25
2022-08-27T08:03:03.998Z,60.85
2022-08-27T08:05:55.898Z,60.10
2022-08-27T08:08:46.732Z,69.22
2022-08-27T08:11:37.956Z,54.75
2022-08-27T08:14:28.408Z,58.63
2022-08-27T08:17:18.931Z,51.95
2022-08-27T08:20:27.457Z,57.80
2022-08-27T08:23:21.604Z,60.15
2022-08-27T08:26:12.406Z,58.80
2022-08-27T08:29:05.053Z,59.13
2022-08-27T08:31:55.558Z,61.90
2022-08-27T08:34:45.437Z,57.40
2022-08-27T08:37:36.108Z,66.70
2022-08-27T08:40:36.125Z,62.30
2022-08-27T08:43:39.199Z,61.55
2022-08-27T08:46:36.753Z,62.80
2022-08-27T08:49:50.023Z,59.60
2022-08-27T08:53:04.437Z,62.53
2022-08-27T08:56:01.439Z,63.63
2022-08-27T08:58:58.605Z,62.72
2022-08-27T09:01:49.920Z,58.38
2022-08-27T09:04:41.238Z,54.72
2022-08-27T09:07:54.165Z,58.53
2022-08-27T09:10:57.359Z,58.72
2022-08-27T09:13:51.683Z,55.42
2022-08-27T09:16:42.101Z,61.15
2022-08-27T09:19:35.042Z,62.47
2022-08-27T09:22:44.935Z,57.80
2022-08-27T09:25:40.689Z,58.85
2022-08-27T09:28:49.556Z,57.83
2022-08-27T09:31:41.108Z,56.35
2022-08-27T09:34:37.672Z,60.95
2022-08-27T09:37:34.603Z,58.55
2022-08-27T09:40:32.158Z,57.63
2022-08-27T09:43:26.987Z,52.42
2022-08-27T09:46:24.370Z,64.72
2022-08-27T09:49:18.811Z,55.53
2022-08-27T09:52:19.341Z,61.55
2022-08-27T09:55:10.079Z,61.20
2022-08-27T09:58:03.343Z,59.10
2022-08-27T10:01:16.025Z,56.92
2022-08-27T10:04:23.591Z,52.95
2022-08-27T10:07:38.661Z,54.70
2022-08-27T10:13:58.029Z,58.42
2022-08-27T10:17:25.272Z,59.35
2022-08-27T10:20:43.628Z,55.97
2022-08-27T10:23:53.012Z,58.13
2022-08-27T10:26:57.429Z,60.30
2022-08-27T10:30:10.366Z,58.88
2022-08-27T10:33:26.335Z,58.35
2022-08-27T10:36:31.915Z,56.95
2022-08-27T10:39:38.592Z,53.28
2022-08-27T10:42:32.352Z,56.65
2022-08-27T10:45:30.888Z,61.07
2022-08-27T10:48:34.703Z,62.95
2022-08-27T10:51:32.330Z,58.85
2022-08-27T10:54:40.181Z,57.55
2022-08-27T10:58:07.472Z,56.05
2022-08-27T11:01:09.016Z,54.92
2022-08-27T11:04:08.120Z,51.53
2022-08-27T11:07:07.079Z,52.00
2022-08-27T11:10:05.946Z,56.50
2022-08-27T11:13:00.099Z,55.15
2022-08-27T11:15:54.642Z,57.45
2022-08-27T11:18:56.635Z,52.05
2022-08-27T11:22:12.253Z,55.47
2022-08-27T11:25:07.521Z,52.95
2022-08-27T11:27:58.737Z,50.63
2022-08-27T11:30:48.698Z,51.88
2022-08-27T11:33:54.911Z,48.30
2022-08-27T11:37:06.459Z,50.10
2022-08-27T11:40:18.124Z,51.92
2022-08-27T11:43:16.292Z,50.28
2022-08-27T11:46:08.769Z,51.65
2022-08-27T11:49:02.221Z,54.47
2022-08-27T11:51:58.444Z,49.17
2022-08-27T11:54:55.108Z,46.17
2022-08-27T11:57:46.018Z,54.90
2022-08-27T12:00:41.649Z,50.63
2022-08-27T12:03:35.544Z,47.47
2022-08-27T12:06:27.115Z,53.85
2022-08-27T12:09:23.242Z,48.75
2022-08-27T12:12:25.422Z,51.45
2022-08-27T12:15:22.660Z,49.95
2022-08-27T12:18:46.623Z,48.10
2022-08-27T12:21:39.858Z,45.38
2022-08-27T12:24:56.015Z,44.05
2022-08-27T12:27:56.182Z,51.85
2022-08-27T12:30:51.847Z,51.05
2022-08-27T12:33:46.760Z,49.85
2022-08-27T12:36:37.899Z,50.88
2022-08-27T12:39:36.086Z,50.65
2022-08-27T12:42:26.347Z,47.63
2022-08-27T12:45:22.165Z,55.50
2022-08-27T12:48:12.782Z,46.45
2022-08-27T12:51:08.557Z,42.95
2022-08-27T12:54:10.826Z,43.97
2022-08-27T12:57:29.289Z,45.25
2022-08-27T13:00:26.262Z,45.35
2022-08-27T13:03:26.086Z,41.17
2022-08-27T13:06:34.591Z,37.80
2022-08-27T13:09:48.181Z,32.85
2022-08-27T13:12:38.998Z,31.60
2022-08-27T13:15:29.238Z,29.80
2022-08-27T13:18:20.122Z,36.28
2022-08-27T13:21:25.487Z,34.08
2022-08-27T13:24:21.615Z,32.97
2022-08-27T13:27:12.414Z,30.77
2022-08-27T13:30:14.384Z,27.60
2022-08-27T13:33:41.165Z,32.08
2022-08-27T13:36:36.427Z,38.17
2022-08-27T13:39:27.811Z,37.40
2022-08-27T13:42:20.097Z,34.30
2022-08-27T13:45:11.612Z,37.30
2022-08-27T13:48:02.282Z,32.95
2022-08-27T13:50:55.195Z,41.40
2022-08-27T13:54:07.708Z,43.33
2022-08-27T13:57:05.670Z,44.22
2022-08-27T13:59:55.900Z,39.97
2022-08-27T14:02:56.241Z,44.42
2022-08-27T14:05:47.827Z,44.50
2022-08-27T14:08:38.441Z,41.22
2022-08-27T14:11:28.563Z,42.15
2022-08-27T14:14:18.976Z,41.03
2022-08-27T14:17:34.373Z,45.42
2022-08-27T14:20:24.817Z,43.72
2022-08-27T14:23:17.440Z,42.83
2022-08-27T14:26:08.523Z,41.22
2022-08-27T14:28:59.142Z,41.67
2022-08-27T14:31:49.506Z,43.15
2022-08-27T14:34:39.992Z,40.33
2022-08-27T14:37:30.319Z,35.80
2022-08-27T14:40:20.619Z,43.55
2022-08-27T14:43:10.617Z,45.65
2022-08-27T14:46:02.081Z,44.60
2022-08-27T14:48:53.742Z,43.22
2022-08-27T14:51:45.870Z,46.80
2022-08-27T14:54:37.062Z,38.45
2022-08-27T14:57:27.874Z,39.95
2022-08-27T15:00:18.489Z,38.85
2022-08-27T15:03:11.292Z,39.85
2022-08-27T15:06:01.402Z,40.95
2022-08-27T15:08:52.075Z,36.90
2022-08-27T15:11:43.396Z,38.47
2022-08-27T15:14:35.732Z,35.63
2022-08-27T15:17:34.601Z,29.98
2022-08-27T15:20:25.652Z,30.88
2022-08-27T15:23:16.072Z,29.42
2022-08-27T15:26:06.737Z,31.50
2022-08-27T15:28:57.436Z,31.65
2022-08-27T15:31:47.431Z,34.03
2022-08-27T15:34:37.332Z,35.92
2022-08-27T15:37:27.979Z,33.35
2022-08-27T15:40:19.369Z,34.45
2022-08-27T15:43:10.156Z,29.63
2022-08-27T15:46:00.410Z,27.95
2022-08-27T15:48:50.645Z,29.65
2022-08-27T15:51:40.969Z,28.02
2022-08-27T15:54:30.947Z,34.33
2022-08-27T15:57:21.012Z,32.85
2022-08-27T16:00:11.551Z,34.75
2022-08-27T16:03:05.147Z,34.95
2022-08-27T16:05:55.396Z,30.70
2022-08-27T16:08:45.137Z,36.10
2022-08-27T16:11:35.638Z,45.65
2022-08-27T16:14:25.806Z,38.88
2022-08-27T16:17:16.058Z,38.88
2022-08-27T16:20:08.613Z,42.83
2022-08-27T16:23:00.160Z,41.42
2022-08-27T16:25:50.078Z,45.20
2022-08-27T16:28:40.219Z,44.78
2022-08-27T16:31:31.291Z,45.25
2022-08-27T16:34:26.173Z,44.47
2022-08-27T16:37:16.582Z,41.20
2022-08-27T16:40:07.196Z,42.95
2022-08-27T16:42:58.239Z,41.53
2022-08-27T16:45:49.891Z,38.80
2022-08-27T16:49:01.075Z,43.55
2022-08-27T16:51:52.446Z,38.78
2022-08-27T16:54:43.237Z,39.97
2022-08-27T16:57:32.992Z,42.72
2022-08-27T17:00:24.622Z,36.28
2022-08-27T17:03:17.585Z,30.77
2022-08-27T17:06:09.966Z,33.90
2022-08-27T17:09:00.275Z,32.42
2022-08-27T17:11:54.772Z,34.60
2022-08-27T17:14:45.240Z,28.90
2022-08-27T17:17:37.168Z,22.77
2022-08-27T17:20:27.371Z,23.80
2022-08-27T17:23:30.713Z,16.92
2022-08-27T17:26:23.239Z,13.63
2022-08-27T17:29:13.034Z,14.27
2022-08-27T17:32:08.825Z,7.60
2022-08-27T17:35:03.579Z,8.48
2022-08-27T17:37:55.452Z,8.48
2022-08-27T17:40:46.311Z,9.32
2022-08-27T17:43:42.589Z,7.40
2022-08-27T17:46:32.829Z,7.43
2022-08-27T17:49:23.469Z,7.20
2022-08-27T17:52:15.248Z,7.55
2022-08-27T17:55:06.481Z,8.52
2022-08-27T17:57:56.735Z,7.50
2022-08-27T18:00:47.135Z,6.63
2022-08-27T18:03:44.267Z,7.53
2022-08-27T18:06:39.209Z,7.82
2022-08-27T18:09:29.345Z,8.35
2022-08-27T18:12:23.222Z,9.45
2022-08-27T18:15:31.151Z,7.68
2022-08-27T18:18:21.423Z,7.95
2022-08-27T18:21:11.609Z,10.25
2022-08-27T18:24:01.579Z,10.27
2022-08-27T18:26:51.887Z,9.35
2022-08-27T18:29:42.253Z,8.18
2022-08-27T18:32:32.406Z,7.47
2022-08-27T18:35:26.150Z,9.07
2022-08-27T18:38:17.163Z,9.45
2022-08-27T18:41:08.368Z,9.48
2022-08-27T18:43:59.948Z,9.13
2022-08-27T18:46:50.071Z,10.10
2022-08-27T18:49:40.329Z,12.48
2022-08-27T18:52:30.616Z,11.98
2022-08-27T18:55:24.721Z,11.95
2022-08-27T18:58:15.003Z,14.88
2022-08-27T19:01:10.543Z,12.48
2022-08-27T19:04:00.999Z,10.07
2022-08-27T19:06:51.563Z,10.73
2022-08-27T19:09:41.861Z,10.93
2022-08-27T19:12:32.312Z,15.73
2022-08-27T19:15:23.136Z,13.85
2022-08-27T19:18:13.625Z,19.60
2022-08-27T19:21:05.303Z,12.60
2022-08-27T19:23:55.959Z,15.18
2022-08-27T19:26:47.520Z,12.68
2022-08-27T19:29:37.588Z,15.35
2022-08-27T19:32:27.455Z,14.07
2022-08-27T19:35:17.727Z,15.73
2022-08-27T19:38:12.722Z,15.35
2022-08-27T19:41:03.913Z,15.88
2022-08-27T19:43:53.857Z,15.43
2022-08-27T19:46:43.978Z,16.23
2022-08-27T19:49:34.576Z,14.20
2022-08-27T19:52:24.966Z,17.42
2022-08-27T19:55:15.369Z,16.75
2022-08-27T19:58:05.744Z,18.25
2022-08-27T20:00:56.980Z,15.93
2022-08-27T20:03:47.329Z,19.27
2022-08-27T20:06:37.849Z,16.83
2022-08-27T20:09:27.899Z,17.48
2022-08-27T20:12:17.916Z,21.10
2022-08-27T20:15:08.701Z,16.92
2022-08-27T20:18:01.599Z,20.17
2022-08-27T20:20:52.089Z,21.53
2022-08-27T20:23:42.421Z,17.52
2022-08-27T20:26:33.426Z,21.58
2022-08-27T20:29:32.488Z,19.90
2022-08-27T20:32:27.998Z,17.00
2022-08-27T20:35:20.887Z,16.52
2022-08-27T20:38:10.935Z,15.02
2022-08-27T20:41:01.319Z,14.70
2022-08-27T20:43:51.181Z,16.73
2022-08-27T20:46:41.114Z,17.65
2022-08-27T20:49:35.628Z,17.35
2022-08-27T20:52:25.797Z,18.52
2022-08-27T20:55:17.527Z,14.77
2022-08-27T20:58:26.310Z,18.25
2022-08-27T21:01:16.832Z,16.45
2022-08-27T21:04:06.893Z,18.52
2022-08-27T21:06:57.303Z,21.35
2022-08-27T21:09:57.023Z,18.95
2022-08-27T21:12:48.440Z,18.40
2022-08-27T21:15:38.775Z,20.42
2022-08-27T21:18:29.247Z,15.77
2022-08-27T21:21:20.156Z,18.13
2022-08-27T21:24:10.445Z,21.60
2022-08-27T21:27:00.816Z,18.25
2022-08-27T21:29:50.938Z,23.80
2022-08-27T21:32:40.733Z,25.48
2022-08-27T21:35:32.780Z,26.83
2022-08-27T21:38:23.319Z,24.05
2022-08-27T21:41:13.912Z,24.88
2022-08-27T21:44:05.096Z,25.67
2022-08-27T21:46:57.988Z,21.92
2022-08-27T21:49:48.167Z,18.05
2022-08-27T21:52:38.564Z,22.42
2022-08-27T21:55:28.742Z,22.35
2022-08-27T21:58:20.090Z,21.65
2022-08-27T22:04:04.168Z,23.42
2022-08-27T22:06:54.901Z,24.48
2022-08-27T22:09:45.259Z,25.00
2022-08-27T22:12:35.662Z,21.58
2022-08-27T22:15:26.210Z,22.08
2022-08-27T22:18:17.369Z,17.83
2022-08-27T22:21:07.716Z,23.27
2022-08-27T22:23:57.907Z,24.10
2022-08-27T22:26:48.407Z,22.10
2022-08-27T22:29:38.346Z,20.90
2022-08-27T22:32:28.660Z,21.60
2022-08-27T22:35:18.999Z,22.52
2022-08-27T22:38:09.382Z,21.90
2022-08-27T22:40:59.689Z,21.88
2022-08-27T22:43:51.827Z,22.27
2022-08-27T22:46:46.879Z,20.27
2022-08-27T22:49:37.185Z,19.70
2022-08-27T22:52:28.189Z,22.98
2022-08-27T22:55:21.441Z,21.08
2022-08-27T22:58:11.524Z,16.35
2022-08-27T23:01:02.231Z,19.35
2022-08-27T23:03:54.091Z,21.92
2022-08-27T23:06:44.386Z,23.73
2022-08-27T23:09:35.034Z,17.20
2022-08-27T23:12:26.188Z,20.17
2022-08-27T23:15:18.073Z,21.65
2022-08-27T23:18:08.601Z,22.20
2022-08-27T23:20:59.315Z,23.08
2022-08-27T23:23:49.259Z,19.80
2022-08-27T23:26:58.143Z,23.30
2022-08-27T23:29:48.894Z,23.08
2022-08-27T23:32:39.479Z,22.23
2022-08-27T23:35:36.884Z,19.00
2022-08-27T23:38:27.342Z,20.67
2022-08-27T23:41:17.808Z,22.27
2022-08-27T23:44:08.329Z,19.38
2022-08-27T23:46:58.516Z,27.05
2022-08-27T23:49:48.806Z,25.92
2022-08-27T23:52:40.176Z,22.23
2022-08-27T23:55:30.457Z,27.77
2022-08-27T23:58:20.653Z,26.13
